Time;durP1;ratioP1;P1;durP2;ratioP2;P2;SDS_P1;SDS_P2;PMS_P1;PMS_P2;Temp;Humidity;BMP_temperature;BMP_pressure;BME280_temperature;BME280_humidity;BME280_pressure;Samples;Min_cycle;Max_cycle;Signal;HPM_P1;HPM_P2
2023/12/17 00:00:56;;;;;;;30.83;17.15;;;;;;;-0.29;100.00;98874.69;5007602;28;20041;-69
2023/12/17 00:03:22;;;;;;;32.80;17.17;;;;;;;-0.27;100.00;98870.72;5011229;28;20911;-69
2023/12/17 00:05:48;;;;;;;32.17;16.70;;;;;;;-0.32;100.00;98872.50;5005767;28;20045;-71
2023/12/17 00:08:15;;;;;;;35.88;16.52;;;;;;;-0.28;100.00;98860.97;5008822;28;20129;-72
2023/12/17 00:10:41;;;;;;;40.50;16.70;;;;;;;-0.23;100.00;98862.97;5012394;28;20041;-69
2023/12/17 00:13:07;;;;;;;47.05;16.40;;;;;;;-0.22;100.00;98860.03;5000247;28;20034;-71
2023/12/17 00:15:32;;;;;;;36.80;17.52;;;;;;;-0.20;100.00;98857.91;5020125;28;20049;-69
2023/12/17 00:17:58;;;;;;;37.17;18.65;;;;;;;-0.20;100.00;98851.69;5012888;28;20072;-69
2023/12/17 00:20:23;;;;;;;33.70;16.92;;;;;;;-0.22;100.00;98849.25;5007119;28;20128;-69
2023/12/17 00:22:48;;;;;;;38.30;15.88;;;;;;;-0.16;100.00;98858.22;5013999;28;20107;-70
2023/12/17 00:25:14;;;;;;;38.00;17.75;;;;;;;-0.16;100.00;98860.94;5000243;28;20104;-70
2023/12/17 00:27:39;;;;;;;33.85;16.77;;;;;;;-0.15;100.00;98859.03;5020774;28;20041;-70
2023/12/17 00:30:05;;;;;;;31.38;17.23;;;;;;;-0.12;100.00;98861.25;5006881;28;20152;-69
2023/12/17 00:32:30;;;;;;;38.63;20.52;;;;;;;-0.14;100.00;98858.81;5008577;28;20049;-70
2023/12/17 00:34:56;;;;;;;42.90;19.92;;;;;;;-0.17;100.00;98845.00;5013890;28;20122;-69
2023/12/17 00:37:21;;;;;;;35.60;18.08;;;;;;;-0.21;100.00;98847.38;5008045;28;20111;-69
2023/12/17 00:39:46;;;;;;;39.95;18.25;;;;;;;-0.18;100.00;98854.13;5016795;28;20046;-69
2023/12/17 00:42:12;;;;;;;35.38;19.42;;;;;;;-0.13;100.00;98857.72;5004172;28;20128;-69
2023/12/17 00:44:37;;;;;;;37.22;19.70;;;;;;;-0.17;100.00;98845.81;5008502;28;20038;-70
2023/12/17 00:47:03;;;;;;;34.90;18.83;;;;;;;-0.18;100.00;98833.44;5003068;28;20038;-73
2023/12/17 00:49:28;;;;;;;44.35;20.75;;;;;;;-0.22;100.00;98834.94;5000617;28;20132;-68
2023/12/17 00:51:54;;;;;;;37.05;17.55;;;;;;;-0.15;100.00;98838.31;5005414;28;20037;-70
2023/12/17 00:54:19;;;;;;;39.55;19.75;;;;;;;-0.17;100.00;98855.78;4997285;28;20084;-70
2023/12/17 00:56:44;;;;;;;33.35;18.05;;;;;;;-0.20;100.00;98843.59;5008518;28;20420;-70
2023/12/17 00:59:10;;;;;;;35.17;18.25;;;;;;;-0.20;100.00;98840.91;4995144;28;20194;-70
2023/12/17 01:01:35;;;;;;;32.92;16.25;;;;;;;-0.14;100.00;98847.22;4999087;28;20396;-71
2023/12/17 01:04:00;;;;;;;35.80;18.88;;;;;;;-0.17;100.00;98851.19;5007723;28;20077;-70
2023/12/17 01:06:26;;;;;;;34.83;17.73;;;;;;;-0.21;100.00;98853.56;5003909;28;20449;-70
2023/12/17 01:08:51;;;;;;;34.78;17.23;;;;;;;-0.17;100.00;98858.47;5006851;28;20041;-70
2023/12/17 01:11:17;;;;;;;32.15;17.45;;;;;;;-0.11;100.00;98855.63;4995325;28;20574;-70
2023/12/17 01:13:42;;;;;;;34.63;18.75;;;;;;;-0.17;100.00;98853.09;4991962;28;20041;-69
2023/12/17 01:16:08;;;;;;;37.13;18.08;;;;;;;-0.13;100.00;98846.94;5002498;28;20557;-69
2023/12/17 01:18:34;;;;;;;32.85;18.13;;;;;;;-0.07;100.00;98847.88;5003835;28;20044;-70
2023/12/17 01:21:00;;;;;;;33.28;17.55;;;;;;;-0.11;100.00;98838.63;5007457;28;20042;-70
2023/12/17 01:23:25;;;;;;;34.72;19.25;;;;;;;-0.16;100.00;98836.69;5001766;28;20567;-69
2023/12/17 01:25:51;;;;;;;36.10;18.42;;;;;;;-0.11;100.00;98841.31;5007056;28;20065;-69
2023/12/17 01:28:16;;;;;;;34.40;18.23;;;;;;;0.00;100.00;98848.53;5003429;28;20480;-70
2023/12/17 01:30:41;;;;;;;38.53;19.23;;;;;;;-0.01;100.00;98845.00;5000115;28;20034;-69
2023/12/17 01:33:07;;;;;;;50.28;20.80;;;;;;;-0.08;100.00;98848.94;4995586;28;20046;-70
2023/12/17 01:35:32;;;;;;;34.25;18.33;;;;;;;-0.17;100.00;98845.00;5000308;28;20133;-70
2023/12/17 01:37:57;;;;;;;35.63;18.45;;;;;;;-0.04;100.00;98855.44;5003001;28;20396;-69
2023/12/17 01:40:23;;;;;;;35.08;18.55;;;;;;;0.08;100.00;98855.38;4994789;28;20049;-71
2023/12/17 01:42:52;;;;;;;33.83;18.45;;;;;;;0.13;100.00;98877.84;5000311;28;20052;-72
2023/12/17 01:45:18;;;;;;;36.58;19.33;;;;;;;0.16;100.00;98873.81;4995945;28;20042;-70
2023/12/17 01:47:44;;;;;;;33.17;16.65;;;;;;;0.23;100.00;98877.16;5000101;28;20136;-72
2023/12/17 01:50:09;;;;;;;30.52;17.35;;;;;;;0.21;100.00;98871.22;4995302;28;20590;-70
2023/12/17 01:52:35;;;;;;;31.08;17.73;;;;;;;0.14;100.00;98870.56;4999515;28;20049;-70
2023/12/17 01:55:01;;;;;;;31.10;17.85;;;;;;;0.13;100.00;98871.63;5013594;28;20095;-71
2023/12/17 01:57:27;;;;;;;34.03;17.73;;;;;;;0.22;100.00;98874.72;5013444;28;20041;-70
2023/12/17 01:59:53;;;;;;;30.05;18.02;;;;;;;0.32;100.00;98889.16;5003709;28;20582;-69
2023/12/17 02:02:18;;;;;;;32.50;18.77;;;;;;;0.30;100.00;98883.22;5006742;28;20040;-69
2023/12/17 02:04:44;;;;;;;36.13;19.60;;;;;;;0.24;100.00;98886.09;4994907;28;20065;-68
2023/12/17 02:07:09;;;;;;;34.78;18.80;;;;;;;0.27;100.00;98893.66;5013373;28;20104;-71
2023/12/17 02:09:35;;;;;;;32.33;18.40;;;;;;;0.25;100.00;98893.09;5010676;28;20503;-69
2023/12/17 02:12:00;;;;;;;37.10;18.77;;;;;;;0.24;100.00;98897.69;5018528;28;20030;-69
2023/12/17 02:14:26;;;;;;;32.65;16.95;;;;;;;0.26;100.00;98895.56;5010334;28;20049;-70
2023/12/17 02:16:51;;;;;;;30.55;17.25;;;;;;;0.26;100.00;98890.16;5018278;28;20124;-71
2023/12/17 02:19:16;;;;;;;28.55;15.85;;;;;;;0.26;100.00;98889.34;5014220;28;20452;-70
2023/12/17 02:21:42;;;;;;;27.92;15.82;;;;;;;0.25;100.00;98893.09;5020001;28;20069;-69
2023/12/17 02:24:07;;;;;;;24.63;15.80;;;;;;;0.30;100.00;98882.41;5014434;28;20063;-70
2023/12/17 02:26:33;;;;;;;27.40;16.48;;;;;;;0.29;100.00;98873.50;5019086;28;20095;-69
2023/12/17 02:28:58;;;;;;;28.85;16.52;;;;;;;0.18;100.00;98875.22;5019438;28;20052;-69
2023/12/17 02:31:23;;;;;;;27.67;17.05;;;;;;;0.15;100.00;98891.88;5014187;28;20050;-69
2023/12/17 02:33:49;;;;;;;30.25;17.48;;;;;;;0.24;100.00;98888.78;5018652;28;20045;-69
2023/12/17 02:36:15;;;;;;;28.45;16.00;;;;;;;0.13;100.00;98882.41;5014512;28;20559;-70
2023/12/17 02:38:40;;;;;;;31.23;16.90;;;;;;;-0.02;100.00;98889.19;5011494;28;20052;-69
2023/12/17 02:41:05;;;;;;;28.88;17.52;;;;;;;-0.42;100.00;98897.34;5008728;28;20100;-68
2023/12/17 02:43:31;;;;;;;27.92;16.13;;;;;;;-0.54;100.00;98894.72;5016342;28;20635;-71
2023/12/17 02:45:56;;;;;;;28.45;17.23;;;;;;;-0.46;100.00;98894.31;5019781;28;20033;-71
2023/12/17 02:48:21;;;;;;;35.95;18.58;;;;;;;-0.44;100.00;98894.09;5013703;28;20107;-70
2023/12/17 02:50:47;;;;;;;33.58;19.55;;;;;;;-0.67;100.00;98897.69;5018797;28;20037;-70
2023/12/17 02:53:12;;;;;;;35.92;19.33;;;;;;;-0.85;100.00;98901.34;5004313;28;20573;-69
2023/12/17 02:55:37;;;;;;;43.03;21.80;;;;;;;-0.95;100.00;98904.66;5017005;28;20658;-69
2023/12/17 02:58:04;;;;;;;37.55;20.20;;;;;;;-0.85;100.00;98909.44;5009767;28;20030;-73
2023/12/17 03:00:29;;;;;;;37.92;21.05;;;;;;;-0.52;100.00;98905.22;5018063;28;20037;-69
2023/12/17 03:02:54;;;;;;;45.22;21.40;;;;;;;-0.40;100.00;98906.00;5019677;28;20037;-70
2023/12/17 03:05:20;;;;;;;40.17;21.92;;;;;;;-0.35;100.00;98914.16;5006535;28;20220;-69
2023/12/17 03:07:45;;;;;;;39.67;21.85;;;;;;;-0.15;100.00;98911.03;5015897;28;20038;-68
2023/12/17 03:10:11;;;;;;;39.22;21.25;;;;;;;-0.03;100.00;98902.91;5008344;28;20044;-70
2023/12/17 03:12:36;;;;;;;34.25;18.70;;;;;;;0.01;100.00;98904.03;5012123;28;20492;-69
2023/12/17 03:15:01;;;;;;;35.38;20.27;;;;;;;0.06;100.00;98909.50;5014742;28;20053;-72
2023/12/17 03:17:27;;;;;;;38.65;19.25;;;;;;;0.14;100.00;98911.78;5007545;28;20053;-68
2023/12/17 03:19:52;;;;;;;37.92;19.95;;;;;;;0.20;100.00;98904.63;5014728;28;20042;-69
2023/12/17 03:22:18;;;;;;;46.03;24.10;;;;;;;0.03;100.00;98899.22;5002038;28;20157;-68
2023/12/17 03:24:43;;;;;;;38.45;20.33;;;;;;;-0.04;100.00;98907.47;5006542;28;20042;-70
2023/12/17 03:27:08;;;;;;;37.25;20.08;;;;;;;0.18;100.00;98898.63;5008472;28;20124;-68
2023/12/17 03:29:34;;;;;;;31.77;18.13;;;;;;;0.37;100.00;98899.22;5004175;28;20548;-71
2023/12/17 03:32:02;;;;;;;31.38;18.48;;;;;;;0.41;100.00;98899.53;5017124;28;20042;-69
2023/12/17 03:34:27;;;;;;;37.22;19.33;;;;;;;0.45;100.00;98896.13;5006641;28;20042;-69
2023/12/17 03:36:52;;;;;;;36.15;19.60;;;;;;;0.44;100.00;98891.78;5009367;28;20052;-69
2023/12/17 03:39:18;;;;;;;33.33;18.75;;;;;;;0.36;100.00;98892.19;5013552;28;20091;-70
2023/12/17 03:41:43;;;;;;;36.70;20.55;;;;;;;0.39;100.00;98889.00;5005358;28;20506;-70
2023/12/17 03:44:08;;;;;;;33.58;19.45;;;;;;;0.27;100.00;98883.72;5009526;28;20559;-69
2023/12/17 03:46:34;;;;;;;37.58;20.15;;;;;;;0.28;100.00;98887.22;5011058;28;20037;-69
2023/12/17 03:48:59;;;;;;;33.08;18.33;;;;;;;0.56;100.00;98889.00;5008576;28;20041;-71
2023/12/17 03:51:24;;;;;;;33.30;18.55;;;;;;;0.48;100.00;98886.72;5004931;28;20484;-69
2023/12/17 03:53:50;;;;;;;34.97;19.02;;;;;;;0.53;100.00;98884.09;5001685;28;20077;-68
2023/12/17 03:56:17;;;;;;;36.28;19.95;;;;;;;0.60;100.00;98892.81;5012501;28;20041;-72
2023/12/17 03:58:43;;;;;;;35.30;17.83;;;;;;;0.65;100.00;98892.91;5004098;28;21134;-70
2023/12/17 04:01:09;;;;;;;28.70;16.45;;;;;;;0.66;100.00;98882.94;5001819;28;20096;-70
2023/12/17 04:03:36;;;;;;;32.95;17.55;;;;;;;0.63;100.00;98876.16;5009768;28;20049;-69
2023/12/17 04:06:03;;;;;;;31.85;17.15;;;;;;;0.52;100.00;98879.75;5001138;28;20100;-70
2023/12/17 04:08:29;;;;;;;33.67;17.35;;;;;;;0.60;100.00;98881.22;5001019;28;20034;-69
2023/12/17 04:10:54;;;;;;;31.40;16.88;;;;;;;0.62;100.00;98879.09;5010371;28;20128;-69
2023/12/17 04:13:20;;;;;;;33.28;16.92;;;;;;;0.74;100.00;98871.72;4996006;28;20707;-69
2023/12/17 04:15:46;;;;;;;34.83;18.52;;;;;;;0.80;100.00;98880.69;5009402;28;20092;-70
2023/12/17 04:18:12;;;;;;;31.95;17.08;;;;;;;0.79;100.00;98896.03;5003887;28;20095;-70
2023/12/17 04:20:38;;;;;;;28.58;17.60;;;;;;;0.84;100.00;98887.22;5003173;28;20042;-70
2023/12/17 04:23:04;;;;;;;28.40;17.13;;;;;;;0.82;100.00;98894.75;4999216;28;20489;-70
2023/12/17 04:25:29;;;;;;;30.73;17.52;;;;;;;0.56;100.00;98889.00;5001811;28;20045;-69
2023/12/17 04:27:55;;;;;;;32.40;17.30;;;;;;;0.10;100.00;98890.97;5013144;28;20034;-69
2023/12/17 04:30:20;;;;;;;34.25;18.10;;;;;;;-0.04;100.00;98882.38;5016541;28;20042;-69
2023/12/17 04:32:45;;;;;;;43.22;20.33;;;;;;;-0.11;100.00;98887.13;5021409;28;20103;-70
2023/12/17 04:35:11;;;;;;;35.13;18.42;;;;;;;-0.05;100.00;98886.16;5007210;28;20095;-70
2023/12/17 04:37:36;;;;;;;38.60;19.27;;;;;;;0.12;100.00;98895.06;5021388;28;20040;-69
2023/12/17 04:40:02;;;;;;;36.67;19.63;;;;;;;0.32;100.00;98894.56;5018629;28;20126;-72
2023/12/17 04:42:28;;;;;;;34.63;17.30;;;;;;;0.41;100.00;98894.97;5017896;28;20045;-70
2023/12/17 04:44:54;;;;;;;37.03;19.17;;;;;;;0.55;100.00;98896.25;5019946;28;20038;-69
2023/12/17 04:47:19;;;;;;;43.03;19.10;;;;;;;0.58;100.00;98897.66;5007799;28;20481;-68
2023/12/17 04:49:46;;;;;;;38.35;19.45;;;;;;;0.57;100.00;98904.91;5019539;28;20060;-69
2023/12/17 04:52:11;;;;;;;35.92;19.77;;;;;;;0.37;100.00;98900.03;5007080;28;20138;-69
2023/12/17 04:54:38;;;;;;;38.28;19.90;;;;;;;0.35;100.00;98902.16;5021508;28;20088;-70
2023/12/17 04:57:04;;;;;;;37.22;20.02;;;;;;;0.46;100.00;98908.53;5012855;28;20037;-72
2023/12/17 04:59:29;;;;;;;39.20;19.55;;;;;;;0.61;100.00;98893.63;5016355;28;20045;-69
2023/12/17 05:01:54;;;;;;;36.55;19.10;;;;;;;0.55;100.00;98903.53;5020672;28;20484;-69
2023/12/17 05:04:20;;;;;;;35.58;18.40;;;;;;;0.35;100.00;98894.06;5007236;28;20045;-69
2023/12/17 05:06:45;;;;;;;39.92;20.80;;;;;;;0.33;100.00;98888.13;5019343;28;20041;-69
2023/12/17 05:09:11;;;;;;;37.22;18.70;;;;;;;0.38;100.00;98888.19;5015378;28;20128;-67
2023/12/17 05:11:36;;;;;;;46.83;20.95;;;;;;;0.50;100.00;98884.59;5018412;28;20377;-68
2023/12/17 05:14:01;;;;;;;47.92;21.30;;;;;;;0.48;100.00;98887.53;5012734;28;20045;-70
2023/12/17 05:16:27;;;;;;;46.67;20.20;;;;;;;0.41;100.00;98883.38;5009237;28;20427;-67
2023/12/17 05:18:52;;;;;;;40.08;19.90;;;;;;;0.47;100.00;98880.50;5020351;28;20132;-67
2023/12/17 05:21:18;;;;;;;44.65;20.33;;;;;;;0.61;100.00;98883.66;5007541;28;20045;-67
2023/12/17 05:23:43;;;;;;;43.65;20.00;;;;;;;0.65;100.00;98875.88;5017742;28;20052;-67
2023/12/17 05:26:09;;;;;;;48.42;21.67;;;;;;;0.70;100.00;98873.25;5009940;28;20042;-67
2023/12/17 05:28:34;;;;;;;50.33;21.13;;;;;;;0.56;100.00;98865.53;5012157;28;20119;-68
2023/12/17 05:31:00;;;;;;;49.65;22.10;;;;;;;0.61;100.00;98877.44;5021933;28;20065;-66
2023/12/17 05:33:25;;;;;;;51.03;21.63;;;;;;;0.58;100.00;98873.38;5016647;28;20218;-69
2023/12/17 05:35:51;;;;;;;59.78;23.48;;;;;;;0.67;100.00;98874.59;5020020;28;20100;-68
2023/12/17 05:38:18;;;;;;;45.90;21.27;;;;;;;0.69;100.00;98877.03;5012067;28;20037;-69
2023/12/17 05:40:43;;;;;;;34.65;18.27;;;;;;;0.40;100.00;98881.72;5010804;28;20049;-68
2023/12/17 05:43:09;;;;;;;39.72;20.00;;;;;;;0.40;100.00;98877.16;5014333;28;20045;-68
2023/12/17 05:45:34;;;;;;;52.42;20.67;;;;;;;0.63;100.00;98875.31;5011556;28;20048;-69
2023/12/17 05:47:59;;;;;;;49.97;21.55;;;;;;;0.70;100.00;98878.66;5014996;28;20033;-68
2023/12/17 05:50:25;;;;;;;53.35;22.80;;;;;;;0.79;100.00;98870.97;5011004;28;20131;-66
2023/12/17 05:52:50;;;;;;;49.90;21.55;;;;;;;0.87;100.00;98881.34;5009944;28;20037;-68
2023/12/17 05:55:16;;;;;;;57.35;22.33;;;;;;;0.89;100.00;98877.31;4999758;28;20788;-68
2023/12/17 05:57:42;;;;;;;51.08;20.38;;;;;;;1.00;100.00;98880.13;5010984;28;20041;-69
2023/12/17 06:00:09;;;;;;;60.65;21.92;;;;;;;1.03;100.00;98877.75;5001271;28;20465;-68
2023/12/17 06:02:34;;;;;;;56.20;21.50;;;;;;;1.00;100.00;98872.03;5016624;28;20040;-68
2023/12/17 06:05:00;;;;;;;55.38;22.40;;;;;;;0.98;100.00;98869.59;5011887;28;20041;-68
2023/12/17 06:07:25;;;;;;;60.55;23.20;;;;;;;0.89;100.00;98863.00;5005368;28;20045;-69
2023/12/17 06:09:51;;;;;;;53.88;20.38;;;;;;;0.82;100.00;98859.69;5012349;28;20492;-68
2023/12/17 06:12:17;;;;;;;61.13;22.70;;;;;;;1.01;100.00;98871.81;5000375;28;20645;-67
2023/12/17 06:14:42;;;;;;;60.72;23.83;;;;;;;1.01;100.00;98868.25;5016013;28;20046;-69
2023/12/17 06:17:08;;;;;;;57.28;22.30;;;;;;;0.90;100.00;98862.75;4999429;28;20080;-67
2023/12/17 06:19:33;;;;;;;52.08;21.05;;;;;;;0.98;100.00;98866.09;5011031;28;20436;-69
2023/12/17 06:22:01;;;;;;;66.10;22.67;;;;;;;0.93;100.00;98867.63;5011909;28;20037;-69
2023/12/17 06:24:26;;;;;;;58.47;22.25;;;;;;;1.00;100.00;98864.75;5007435;28;20041;-67
2023/12/17 06:26:53;;;;;;;54.55;22.58;;;;;;;0.98;100.00;98863.38;5019344;28;20129;-69
2023/12/17 06:29:19;;;;;;;59.25;22.05;;;;;;;1.03;100.00;98866.16;5006687;28;20037;-67
2023/12/17 06:31:44;;;;;;;58.33;22.50;;;;;;;1.13;100.00;98868.97;5015426;28;20056;-67
2023/12/17 06:34:10;;;;;;;56.22;22.27;;;;;;;1.07;100.00;98876.19;5001360;28;20041;-68
2023/12/17 06:36:35;;;;;;;61.33;22.55;;;;;;;0.89;100.00;98873.81;5009598;28;20045;-67
2023/12/17 06:39:01;;;;;;;50.05;21.00;;;;;;;0.91;100.00;98868.97;5012593;28;20065;-68
2023/12/17 06:41:26;;;;;;;54.13;21.73;;;;;;;0.91;100.00;98871.66;4998376;28;20573;-68
2023/12/17 06:43:51;;;;;;;57.13;22.60;;;;;;;0.91;100.00;98866.25;5018605;28;20049;-68
2023/12/17 06:46:17;;;;;;;49.95;20.25;;;;;;;0.94;100.00;98863.88;5006069;28;20041;-68
2023/12/17 06:48:43;;;;;;;52.28;21.48;;;;;;;0.99;100.00;98865.84;5007795;28;20050;-67
2023/12/17 06:51:10;;;;;;;49.45;20.73;;;;;;;0.99;100.00;98865.84;5003141;28;20120;-65
2023/12/17 06:53:35;;;;;;;51.05;21.25;;;;;;;1.05;100.00;98854.03;5016063;28;20306;-66
2023/12/17 06:56:00;;;;;;;53.88;21.83;;;;;;;1.09;100.00;98860.53;5006494;28;20038;-67
2023/12/17 06:58:26;;;;;;;49.00;19.42;;;;;;;0.95;100.00;98854.72;5001896;28;20080;-66
2023/12/17 07:00:51;;;;;;;51.90;21.38;;;;;;;0.95;100.00;98856.59;5003446;28;20030;-67
2023/12/17 07:03:20;;;;;;;47.45;21.00;;;;;;;0.72;100.00;98852.25;5014133;28;20099;-67
2023/12/17 07:05:45;;;;;;;46.28;20.27;;;;;;;0.80;100.00;98859.91;5014764;28;20049;-68
2023/12/17 07:08:11;;;;;;;43.80;19.08;;;;;;;0.75;100.00;98863.34;5003765;28;20042;-69
2023/12/17 07:10:37;;;;;;;45.83;19.52;;;;;;;0.70;100.00;98857.09;5012224;28;20050;-69
2023/12/17 07:13:03;;;;;;;50.67;20.65;;;;;;;0.64;100.00;98861.59;5001451;28;20109;-71
2023/12/17 07:15:29;;;;;;;51.13;21.50;;;;;;;0.81;100.00;98858.88;5017562;28;20137;-69
2023/12/17 07:17:55;;;;;;;52.00;23.88;;;;;;;0.93;100.00;98861.44;5011854;28;20120;-68
2023/12/17 07:20:20;;;;;;;47.03;20.25;;;;;;;1.00;100.00;98855.84;5012509;28;20099;-67
2023/12/17 07:22:45;;;;;;;48.88;22.75;;;;;;;0.92;100.00;98857.13;5005858;28;20042;-67
2023/12/17 07:25:11;;;;;;;48.45;21.45;;;;;;;0.96;100.00;98855.53;5017940;28;20107;-66
2023/12/17 07:27:36;;;;;;;45.95;20.58;;;;;;;1.08;100.00;98848.13;5013684;28;20044;-67
2023/12/17 07:30:02;;;;;;;46.08;20.23;;;;;;;1.14;100.00;98852.50;5012708;28;20420;-68
2023/12/17 07:32:27;;;;;;;48.72;19.65;;;;;;;1.16;100.00;98854.97;5019630;28;20045;-68
2023/12/17 07:34:53;;;;;;;48.65;20.13;;;;;;;1.25;100.00;98855.34;5003176;28;20044;-68
2023/12/17 07:37:18;;;;;;;46.50;20.52;;;;;;;1.21;100.00;98856.94;5006486;28;20397;-67
2023/12/17 07:39:43;;;;;;;45.28;19.48;;;;;;;1.11;100.00;98854.91;5004313;28;20121;-68
2023/12/17 07:42:09;;;;;;;48.13;19.85;;;;;;;1.13;100.00;98858.16;5011945;28;20034;-68
2023/12/17 07:44:34;;;;;;;50.83;22.23;;;;;;;1.24;100.00;98864.50;5010731;28;20049;-68
2023/12/17 07:47:00;;;;;;;55.00;21.00;;;;;;;1.21;100.00;98855.03;5018414;28;20038;-68
2023/12/17 07:49:25;;;;;;;55.72;21.30;;;;;;;1.25;100.00;98864.25;5012796;28;20040;-67
2023/12/17 07:51:52;;;;;;;53.15;20.55;;;;;;;1.11;100.00;98863.00;5005222;28;20128;-67
2023/12/17 07:54:17;;;;;;;49.10;20.65;;;;;;;1.15;100.00;98869.53;5015217;28;20041;-68
2023/12/17 07:56:43;;;;;;;55.55;22.92;;;;;;;1.14;100.00;98876.00;5013571;28;20049;-68
2023/12/17 07:59:09;;;;;;;57.45;22.20;;;;;;;1.28;100.00;98881.84;5003287;28;20038;-67
2023/12/17 08:01:34;;;;;;;54.63;21.70;;;;;;;1.28;100.00;98884.53;5017461;28;20478;-68
2023/12/17 08:04:00;;;;;;;58.90;22.75;;;;;;;1.14;100.00;98868.72;5006077;28;20041;-67
2023/12/17 08:06:25;;;;;;;47.33;21.67;;;;;;;1.09;100.00;98884.03;5010155;28;20046;-67
2023/12/17 08:08:54;;;;;;;51.80;20.77;;;;;;;1.06;100.00;98879.97;5005522;28;20049;-66
2023/12/17 08:11:20;;;;;;;53.40;21.07;;;;;;;1.15;100.00;98888.41;5003018;28;20046;-69
2023/12/17 08:13:46;;;;;;;46.25;19.52;;;;;;;1.18;100.00;98887.91;5010005;28;20045;-67
2023/12/17 08:16:11;;;;;;;53.35;21.08;;;;;;;1.22;100.00;98883.63;4998015;28;20120;-67
2023/12/17 08:18:37;;;;;;;49.97;21.52;;;;;;;1.21;100.00;98879.31;5004103;28;20111;-67
2023/12/17 08:21:03;;;;;;;52.30;20.52;;;;;;;1.17;100.00;98890.88;5000134;28;20041;-69
2023/12/17 08:23:28;;;;;;;50.28;22.63;;;;;;;1.10;100.00;98880.28;5006831;28;20083;-67
2023/12/17 08:25:54;;;;;;;51.35;21.42;;;;;;;1.06;100.00;98879.13;5000462;28;20030;-67
2023/12/17 08:28:20;;;;;;;55.22;22.42;;;;;;;1.08;100.00;98887.78;5005212;28;20038;-68
2023/12/17 08:30:45;;;;;;;59.92;23.63;;;;;;;1.09;100.00;98889.44;5002824;28;20046;-66
2023/12/17 08:33:11;;;;;;;56.00;23.13;;;;;;;0.79;100.00;98881.75;5002797;28;20053;-68
2023/12/17 08:35:37;;;;;;;55.08;21.35;;;;;;;0.65;100.00;98881.28;5009610;28;20060;-68
2023/12/17 08:38:07;;;;;;;55.70;22.48;;;;;;;0.84;100.00;98884.53;4995837;28;20038;-71
2023/12/17 08:40:33;;;;;;;56.88;21.65;;;;;;;0.73;100.00;98884.38;5011926;28;20076;-70
2023/12/17 08:43:00;;;;;;;57.83;22.40;;;;;;;0.89;100.00;98880.00;4998368;28;20037;-67
2023/12/17 08:45:26;;;;;;;65.72;23.02;;;;;;;1.10;100.00;98881.09;5002551;28;20045;-68
2023/12/17 08:47:51;;;;;;;88.35;30.63;;;;;;;1.13;100.00;98882.44;5003198;28;20053;-69
2023/12/17 08:50:17;;;;;;;63.95;24.80;;;;;;;1.10;100.00;98881.09;5014336;28;20049;-67
2023/12/17 08:52:43;;;;;;;61.22;23.98;;;;;;;1.05;100.00;98885.59;5019963;28;20488;-66
2023/12/17 08:55:09;;;;;;;63.42;25.20;;;;;;;1.16;100.00;98875.75;5015463;28;20034;-66
2023/12/17 08:57:34;;;;;;;66.07;24.58;;;;;;;1.24;100.00;98873.44;5019802;28;20033;-66
2023/12/17 09:00:00;;;;;;;61.40;23.80;;;;;;;1.29;100.00;98878.06;5021572;28;20416;-66
2023/12/17 09:02:25;;;;;;;61.33;22.25;;;;;;;1.40;100.00;98879.78;5008750;28;20072;-67
2023/12/17 09:04:52;;;;;;;59.70;22.52;;;;;;;1.43;100.00;98876.59;5020139;28;20494;-67
2023/12/17 09:07:18;;;;;;;53.42;21.85;;;;;;;1.51;100.00;98883.41;5015945;28;20041;-70
2023/12/17 09:09:43;;;;;;;61.38;21.90;;;;;;;1.58;100.00;98880.53;5013043;28;20556;-67
2023/12/17 09:12:09;;;;;;;60.53;25.13;;;;;;;1.65;100.00;98881.16;5015478;28;20127;-68
2023/12/17 09:14:35;;;;;;;54.10;20.58;;;;;;;1.59;100.00;98874.06;5020289;28;20040;-68
2023/12/17 09:17:01;;;;;;;53.30;20.77;;;;;;;1.59;100.00;98865.97;5013669;28;20107;-67
2023/12/17 09:19:26;;;;;;;56.08;21.55;;;;;;;1.53;100.00;98868.63;5007692;28;20480;-68
2023/12/17 09:21:52;;;;;;;56.88;20.30;;;;;;;1.56;100.00;98861.06;5019130;28;20393;-68
2023/12/17 09:24:17;;;;;;;54.17;20.63;;;;;;;1.57;100.00;98863.53;5015621;28;20053;-68
2023/12/17 09:26:43;;;;;;;50.75;21.52;;;;;;;1.66;100.00;98861.19;5003664;28;20077;-67
2023/12/17 09:29:08;;;;;;;57.38;22.60;;;;;;;1.62;100.00;98862.75;5014938;28;20187;-68
2023/12/17 09:31:34;;;;;;;56.13;22.75;;;;;;;1.59;100.00;98860.56;5012585;28;20516;-68
2023/12/17 09:33:59;;;;;;;63.15;21.65;;;;;;;1.73;100.00;98853.69;5017387;28;20046;-68
2023/12/17 09:36:26;;;;;;;56.83;23.08;;;;;;;1.75;100.00;98853.41;5004643;28;20057;-67
2023/12/17 09:38:52;;;;;;;58.33;22.75;;;;;;;1.80;100.00;98848.88;5012022;28;20067;-67
2023/12/17 09:41:17;;;;;;;62.38;22.38;;;;;;;1.86;100.00;98857.84;5019946;28;20109;-69
2023/12/17 09:43:43;;;;;;;61.83;23.60;;;;;;;1.79;100.00;98860.75;5018338;28;20037;-68
2023/12/17 09:46:09;;;;;;;64.75;20.52;;;;;;;1.79;100.00;98855.34;4999581;28;20136;-68
2023/12/17 09:48:34;;;;;;;83.40;23.30;;;;;;;1.50;100.00;98861.00;5017190;28;20033;-67
2023/12/17 09:51:01;;;;;;;64.57;24.13;;;;;;;1.46;100.00;98856.34;5011559;28;20044;-68
2023/12/17 09:53:29;;;;;;;62.33;23.27;;;;;;;1.55;100.00;98854.03;5015060;28;20128;-67
2023/12/17 09:55:54;;;;;;;65.85;28.30;;;;;;;1.46;100.00;98853.66;5010957;28;20051;-68
2023/12/17 09:58:20;;;;;;;53.83;21.88;;;;;;;1.55;100.00;98844.06;5009092;28;20104;-67
2023/12/17 10:00:45;;;;;;;48.65;21.55;;;;;;;1.62;100.00;98828.47;5010013;28;20045;-68
2023/12/17 10:03:14;;;;;;;53.65;23.27;;;;;;;1.53;100.00;98833.50;5007744;28;20467;-68
2023/12/17 10:05:40;;;;;;;69.65;28.92;;;;;;;1.74;100.00;98839.09;5018935;28;20042;-67
2023/12/17 10:08:05;;;;;;;76.85;27.85;;;;;;;1.80;100.00;98835.38;4998182;28;20038;-68
2023/12/17 10:10:31;;;;;;;73.97;26.55;;;;;;;1.84;100.00;98841.88;5011004;28;20116;-68
2023/12/17 10:12:56;;;;;;;93.88;29.55;;;;;;;1.62;100.00;98846.53;5019306;28;20084;-67
2023/12/17 10:15:22;;;;;;;94.95;28.92;;;;;;;1.71;100.00;98837.72;5006968;28;21454;-68
2023/12/17 10:17:47;;;;;;;62.22;23.98;;;;;;;1.59;100.00;98841.66;5006922;28;20038;-68
2023/12/17 10:20:18;;;;;;;54.17;22.65;;;;;;;1.38;100.00;98836.03;5013849;28;20180;-66
2023/12/17 10:23:02;;;;;;;53.15;21.33;;;;;;;1.09;100.00;98835.44;5017517;28;20045;-70
2023/12/17 10:25:28;;;;;;;52.47;20.80;;;;;;;1.21;100.00;98825.34;5011935;28;20125;-70
2023/12/17 10:27:58;;;;;;;55.35;21.25;;;;;;;1.22;100.00;98829.66;5018572;28;20668;-67
2023/12/17 10:30:32;;;;;;;55.30;21.55;;;;;;;1.35;100.00;98814.94;5007886;28;20046;-67
2023/12/17 10:32:59;;;;;;;52.22;21.02;;;;;;;1.40;100.00;98823.09;5011446;28;20505;-68
2023/12/17 10:35:26;;;;;;;57.45;22.33;;;;;;;1.45;100.00;98825.84;5005421;28;20196;-67
2023/12/17 10:37:56;;;;;;;50.03;21.08;;;;;;;1.61;100.00;98818.72;5016429;28;20156;-67
2023/12/17 10:40:22;;;;;;;60.15;22.45;;;;;;;1.71;100.00;98818.81;5012635;28;21524;-67
2023/12/17 10:42:49;;;;;;;58.40;22.85;;;;;;;1.83;100.00;98812.41;5006783;28;20065;-67
2023/12/17 10:45:19;;;;;;;60.25;25.30;;;;;;;1.69;100.00;98809.31;5017569;28;20048;-67
2023/12/17 10:47:47;;;;;;;55.15;22.42;;;;;;;1.44;100.00;98808.03;5014376;28;20045;-67
2023/12/17 10:50:14;;;;;;;60.78;25.17;;;;;;;1.59;100.00;98806.53;5016727;28;20040;-67
2023/12/17 10:52:40;;;;;;;66.55;26.88;;;;;;;1.62;100.00;98806.00;5020869;28;20089;-67
2023/12/17 10:55:06;;;;;;;66.13;26.17;;;;;;;1.68;100.00;98800.41;5010057;28;20119;-66
2023/12/17 10:57:34;;;;;;;59.40;27.85;;;;;;;1.91;100.00;98801.94;5024465;28;20041;-68
2023/12/17 11:00:02;;;;;;;60.42;25.88;;;;;;;1.99;100.00;98784.44;5008695;28;20114;-67
2023/12/17 11:02:28;;;;;;;60.92;25.20;;;;;;;2.04;100.00;98783.66;5013013;28;20070;-68
2023/12/17 11:04:56;;;;;;;54.92;22.38;;;;;;;2.09;100.00;98784.50;5012318;28;20131;-67
2023/12/17 11:07:22;;;;;;;57.42;25.58;;;;;;;2.21;100.00;98788.91;4999197;28;22610;-68